createdAt,value
2023-05-19T00:02:41.349Z,100
2023-05-19T00:07:39.469Z,100
2023-05-19T00:12:37.877Z,100
2023-05-19T00:17:36.248Z,100
2023-05-19T00:22:34.697Z,100
2023-05-19T00:27:33.058Z,100
2023-05-19T00:32:31.494Z,100
2023-05-19T00:37:29.697Z,100
2023-05-19T00:42:28.066Z,100
2023-05-19T00:47:26.022Z,100
2023-05-19T00:52:24.081Z,100
2023-05-19T00:57:22.019Z,100
2023-05-19T01:02:23.950Z,100
2023-05-19T01:07:21.021Z,100
2023-05-19T01:12:19.053Z,100
2023-05-19T01:17:17.365Z,100
2023-05-19T01:22:15.730Z,100
2023-05-19T01:27:14.317Z,100
2023-05-19T01:32:12.529Z,100
2023-05-19T01:37:10.615Z,100
2023-05-19T01:42:08.617Z,100
2023-05-19T01:47:06.915Z,100
2023-05-19T01:52:05.187Z,100
2023-05-19T01:57:03.503Z,100
2023-05-19T02:02:01.589Z,100
2023-05-19T02:06:59.790Z,100
2023-05-19T02:11:57.854Z,100
2023-05-19T02:16:56.594Z,100
2023-05-19T02:21:54.492Z,100
2023-05-19T02:26:52.685Z,100
2023-05-19T02:31:50.945Z,100
2023-05-19T02:36:48.716Z,100
2023-05-19T02:41:46.655Z,100
2023-05-19T02:46:48.830Z,100
2023-05-19T02:51:46.020Z,100
2023-05-19T02:56:44.175Z,100
2023-05-19T03:01:42.363Z,100
2023-05-19T03:06:40.386Z,100
2023-05-19T03:11:38.395Z,100
2023-05-19T03:16:36.765Z,100
2023-05-19T03:21:38.368Z,100
2023-05-19T03:26:35.896Z,100
2023-05-19T03:31:34.376Z,100
2023-05-19T03:36:32.840Z,100
2023-05-19T03:41:31.380Z,100
2023-05-19T03:46:29.887Z,100
2023-05-19T03:51:31.130Z,100
2023-05-19T03:56:29.182Z,100
2023-05-19T04:01:27.797Z,100
2023-05-19T04:06:26.985Z,100
2023-05-19T04:11:25.553Z,100
2023-05-19T04:16:24.462Z,100
2023-05-19T04:21:23.706Z,100
2023-05-19T04:26:24.008Z,100
2023-05-19T04:31:22.699Z,100
2023-05-19T04:36:25.850Z,86.1
2023-05-19T04:41:26.678Z,69.9
2023-05-19T04:46:25.954Z,66.9
2023-05-19T04:51:25.505Z,60.4
2023-05-19T04:56:23.491Z,64.2
2023-05-19T05:01:17.451Z,72.5
2023-05-19T05:06:19.756Z,59.6
2023-05-19T05:11:19.986Z,51.5
2023-05-19T05:16:18.992Z,50.7
2023-05-19T05:21:17.521Z,47.1
2023-05-19T05:26:16.918Z,44.9
2023-05-19T05:31:18.399Z,44.2
2023-05-19T05:36:17.382Z,41.2
2023-05-19T05:41:16.353Z,41.6
2023-05-19T05:46:15.658Z,40.4
2023-05-19T05:51:14.859Z,39.2
2023-05-19T05:56:12.652Z,40.9
2023-05-19T06:01:10.430Z,41
2023-05-19T06:06:09.520Z,37
2023-05-19T06:11:08.103Z,38.1
2023-05-19T06:16:06.897Z,36.6
2023-05-19T06:21:05.285Z,38.1
2023-05-19T06:26:04.279Z,37.6
2023-05-19T06:31:03.764Z,38.2
2023-05-19T06:36:02.240Z,36.8
2023-05-19T06:41:00.903Z,35.6
2023-05-19T06:46:00.002Z,35.2
2023-05-19T06:50:59.009Z,36.3
2023-05-19T06:55:59.658Z,35.8
2023-05-19T07:00:55.287Z,37.6
2023-05-19T07:05:54.605Z,36.3
2023-05-19T07:10:53.814Z,32.4
2023-05-19T07:15:51.771Z,32.8
2023-05-19T07:20:49.686Z,34.6
2023-05-19T07:25:49.177Z,32.5
2023-05-19T07:30:47.598Z,32.9
2023-05-19T07:35:46.060Z,31.7
2023-05-19T07:40:45.332Z,31.2
2023-05-19T07:45:43.415Z,28.9
2023-05-19T07:50:41.208Z,30.5
2023-05-19T07:55:39.315Z,31
2023-05-19T08:00:36.185Z,29.5
2023-05-19T08:05:35.355Z,30.7
2023-05-19T08:10:33.878Z,30.6
2023-05-19T08:15:32.955Z,31.1
2023-05-19T08:20:30.120Z,29.2
2023-05-19T08:25:27.487Z,28
2023-05-19T08:30:25.902Z,27.4
2023-05-19T08:35:24.831Z,27.9
2023-05-19T08:40:23.830Z,26.6
2023-05-19T08:45:22.533Z,27
2023-05-19T08:50:21.329Z,25.2
2023-05-19T08:55:19.702Z,24
2023-05-19T09:00:18.158Z,24
2023-05-19T09:05:15.337Z,24
2023-05-19T09:10:13.621Z,24.2
2023-05-19T09:15:12.601Z,23.5
2023-05-19T09:20:06.041Z,33.3
2023-05-19T09:24:57.699Z,36.8
2023-05-19T09:30:00.743Z,27.1
2023-05-19T09:35:01.636Z,23.7
2023-05-19T09:40:00.559Z,24.9
2023-05-19T09:44:58.468Z,23.9
2023-05-19T09:49:54.109Z,24.9
2023-05-19T09:54:53.417Z,23.6
2023-05-19T09:59:51.672Z,23.4
2023-05-19T10:04:49.887Z,23.1
2023-05-19T10:09:49.291Z,21.3
2023-05-19T10:14:42.083Z,26.8
2023-05-19T10:19:44.981Z,23
2023-05-19T10:24:42.708Z,26.3
2023-05-19T10:29:41.297Z,26.7
2023-05-19T10:34:39.850Z,22.6
2023-05-19T10:39:38.468Z,22.9
2023-05-19T10:44:29.435Z,30.7
2023-05-19T10:49:25.164Z,27.8
2023-05-19T10:54:28.641Z,28.8
2023-05-19T10:59:24.446Z,31
2023-05-19T11:04:25.526Z,25.1
2023-05-19T11:09:31.311Z,28
2023-05-19T11:14:22.026Z,24.6
2023-05-19T11:19:26.885Z,17.3
2023-05-19T11:24:23.999Z,18.8
2023-05-19T11:29:24.242Z,16.7
2023-05-19T11:34:22.088Z,19.4
2023-05-19T11:39:20.178Z,19.2
2023-05-19T11:44:18.600Z,20.9
2023-05-19T11:49:16.225Z,21.9
2023-05-19T11:54:14.483Z,22.5
2023-05-19T11:59:10.507Z,24.5
2023-05-19T12:04:13.738Z,22.5
2023-05-19T12:09:09.965Z,24.1
2023-05-19T12:14:08.969Z,23.9
2023-05-19T12:19:03.088Z,28.7
2023-05-19T12:24:03.508Z,29.5
2023-05-19T12:28:57.183Z,32.8
2023-05-19T12:33:52.926Z,34.9
2023-05-19T12:38:58.068Z,25.4
2023-05-19T12:43:59.187Z,25.2
2023-05-19T12:48:56.956Z,25.8
2023-05-19T12:53:53.826Z,30.7
2023-05-19T12:58:49.916Z,38.5
2023-05-19T13:03:43.402Z,46.6
2023-05-19T13:08:41.008Z,38.3
2023-05-19T13:13:44.099Z,34.3
2023-05-19T13:18:44.449Z,32.5
2023-05-19T13:23:44.550Z,31.1
2023-05-19T13:28:43.842Z,30.2
2023-05-19T13:33:43.129Z,29.6
2023-05-19T13:38:41.529Z,31.9
2023-05-19T13:43:40.510Z,31.6
2023-05-19T13:48:38.807Z,29.3
2023-05-19T13:53:34.403Z,38.1
2023-05-19T13:58:31.539Z,39
2023-05-19T14:03:32.219Z,33.1
2023-05-19T14:08:31.659Z,33.3
2023-05-19T14:13:32.892Z,30.7
2023-05-19T14:18:29.207Z,33.9
2023-05-19T14:23:27.540Z,35.4
2023-05-19T14:28:24.774Z,34.2
2023-05-19T14:33:23.192Z,34.2
2023-05-19T14:38:22.088Z,33.2
2023-05-19T14:43:20.473Z,35
2023-05-19T14:48:17.868Z,35.1
2023-05-19T14:53:15.835Z,35.6
2023-05-19T14:58:27.377Z,37.4
2023-05-19T15:03:09.760Z,40.4
2023-05-19T15:08:06.834Z,45.5
2023-05-19T15:13:03.930Z,43.8
2023-05-19T15:18:03.013Z,41.2
2023-05-19T15:23:02.100Z,40
2023-05-19T15:28:01.309Z,38.1
2023-05-19T15:33:02.665Z,42.8
2023-05-19T15:37:58.361Z,47.3
2023-05-19T15:42:55.783Z,49.2
2023-05-19T15:47:53.218Z,52.4
2023-05-19T15:52:51.123Z,55.3
2023-05-19T15:57:49.339Z,61.2
2023-05-19T16:02:47.720Z,66.4
2023-05-19T16:07:45.474Z,71
2023-05-19T16:12:43.315Z,72.2
2023-05-19T16:17:42.050Z,73.5
2023-05-19T16:22:40.404Z,73.9
2023-05-19T16:27:42.667Z,75.2
2023-05-19T16:32:39.953Z,73.8
2023-05-19T16:37:37.486Z,81.3
2023-05-19T16:42:39.211Z,86.7
2023-05-19T16:47:36.130Z,98.2
2023-05-19T16:52:34.090Z,100
2023-05-19T16:57:32.139Z,100
2023-05-19T17:02:30.878Z,100
2023-05-19T17:07:28.343Z,100
2023-05-19T17:12:26.391Z,100
2023-05-19T17:17:24.452Z,100
2023-05-19T17:22:22.516Z,100
2023-05-19T17:27:19.982Z,100
2023-05-19T17:32:18.160Z,100
2023-05-19T17:37:16.039Z,100
2023-05-19T17:42:13.576Z,100
2023-05-19T17:47:11.413Z,100
2023-05-19T17:52:09.422Z,100
2023-05-19T17:57:07.273Z,100
2023-05-19T18:02:05.464Z,100
2023-05-19T18:07:03.761Z,100
2023-05-19T18:12:01.865Z,100
2023-05-19T18:16:59.790Z,100
2023-05-19T18:21:58.003Z,100
2023-05-19T18:26:56.393Z,100
2023-05-19T18:31:54.543Z,100
2023-05-19T18:36:52.958Z,100
2023-05-19T18:41:50.837Z,100
2023-05-19T18:46:48.889Z,100
2023-05-19T18:51:47.139Z,100
2023-05-19T18:56:45.250Z,100
2023-05-19T19:01:43.855Z,100
2023-05-19T19:06:43.752Z,100
2023-05-19T19:11:40.742Z,100
2023-05-19T19:16:40.144Z,100
2023-05-19T19:21:38.554Z,100
2023-05-19T19:26:36.988Z,100
2023-05-19T19:31:35.788Z,100
2023-05-19T19:36:34.302Z,100
2023-05-19T19:41:32.568Z,100
2023-05-19T19:46:30.686Z,100
2023-05-19T19:51:28.761Z,100
2023-05-19T19:56:27.138Z,100
2023-05-19T20:01:25.767Z,100
2023-05-19T20:06:24.178Z,100
2023-05-19T20:11:22.853Z,100
2023-05-19T20:16:20.558Z,100
2023-05-19T20:21:18.603Z,100
2023-05-19T20:26:16.922Z,100
2023-05-19T20:31:15.220Z,100
2023-05-19T20:36:13.957Z,100
2023-05-19T20:41:12.961Z,100
2023-05-19T20:46:11.514Z,100
2023-05-19T20:51:10.049Z,100
2023-05-19T20:56:08.442Z,100
2023-05-19T21:01:06.883Z,100
2023-05-19T21:06:05.104Z,100
2023-05-19T21:11:03.313Z,100
2023-05-19T21:16:01.477Z,100
2023-05-19T21:20:59.931Z,100
2023-05-19T21:25:57.962Z,100
2023-05-19T21:30:55.816Z,100
2023-05-19T21:35:54.302Z,100
2023-05-19T21:40:52.122Z,100
2023-05-19T21:45:49.920Z,100
2023-05-19T21:50:47.827Z,100
2023-05-19T21:55:46.004Z,100
2023-05-19T22:00:44.059Z,100
2023-05-19T22:05:41.866Z,100
2023-05-19T22:10:39.781Z,100
2023-05-19T22:15:37.694Z,100
2023-05-19T22:20:35.904Z,100
2023-05-19T22:25:34.120Z,100
2023-05-19T22:30:32.432Z,100
2023-05-19T22:35:30.421Z,100
2023-05-19T22:40:28.951Z,100
2023-05-19T22:45:27.057Z,100
2023-05-19T22:50:25.117Z,100
2023-05-19T22:55:23.321Z,100
2023-05-19T23:00:21.300Z,100
2023-05-19T23:05:19.454Z,100
2023-05-19T23:10:17.397Z,100
2023-05-19T23:15:15.745Z,100
2023-05-19T23:20:14.003Z,100
2023-05-19T23:25:12.121Z,100
2023-05-19T23:30:10.140Z,100
2023-05-19T23:35:08.111Z,100
2023-05-19T23:40:06.205Z,100
2023-05-19T23:45:04.182Z,100
2023-05-19T23:50:02.349Z,100
2023-05-19T23:55:00.372Z,100
2023-05-19T23:59:58.619Z,100
